createdAt,value
2022-09-01T00:00:03.505Z,100410.41
2022-09-01T00:02:32.612Z,100413.06
2022-09-01T00:05:02.689Z,100415.66
2022-09-01T00:07:31.828Z,100412.84
2022-09-01T00:10:00.759Z,100418.56
2022-09-01T00:12:29.885Z,100418.53
2022-09-01T00:14:59.237Z,100409.44
2022-09-01T00:17:28.428Z,100416.75
2022-09-01T00:19:56.722Z,100416.59
2022-09-01T00:22:26.647Z,100420.59
2022-09-01T00:24:55.221Z,100413.72
2022-09-01T00:27:30.644Z,100415.53
2022-09-01T00:29:59.447Z,100408.59
2022-09-01T00:32:27.589Z,100412.84
2022-09-01T00:34:55.624Z,100405.94
2022-09-01T00:37:25.049Z,100418.72
2022-09-01T00:39:53.082Z,100405.34
2022-09-01T00:42:21.284Z,100411.63
2022-09-01T00:44:49.546Z,100411.94
2022-09-01T00:47:19.258Z,100406.53
2022-09-01T00:49:50.342Z,100410.09
2022-09-01T00:52:22.094Z,100403.13
2022-09-01T00:54:56.517Z,100407.16
2022-09-01T00:57:24.544Z,100404.47
2022-09-01T00:59:57.949Z,100406.25
2022-09-01T01:02:26.557Z,100407.53
2022-09-01T01:05:00.665Z,100407.75
2022-09-01T01:07:30.173Z,100409.06
2022-09-01T01:09:59.572Z,100400.63
2022-09-01T01:12:28.127Z,100407.91
2022-09-01T01:14:56.169Z,100360.19
2022-09-01T01:17:24.933Z,100407.44
2022-09-01T01:20:11.959Z,100409.53
2022-09-01T01:23:03.508Z,100414.34
2022-09-01T01:25:35.871Z,100413.00
2022-09-01T01:28:11.164Z,100413.03
2022-09-01T01:30:41.948Z,100411.41
2022-09-01T01:33:11.596Z,100407.97
2022-09-01T01:35:40.113Z,100410.91
2022-09-01T01:38:08.926Z,100413.41
2022-09-01T01:40:39.557Z,100403.44
2022-09-01T01:43:07.852Z,100416.00
2022-09-01T01:45:36.469Z,100412.03
2022-09-01T01:48:06.162Z,100408.28
2022-09-01T01:50:35.852Z,100405.75
2022-09-01T01:53:11.061Z,100407.78
2022-09-01T01:55:41.888Z,100410.78
2022-09-01T01:58:12.466Z,100417.72
2022-09-01T02:00:46.780Z,100413.09
2022-09-01T02:03:17.366Z,100420.75
2022-09-01T02:05:46.159Z,100426.69
2022-09-01T02:08:15.714Z,100427.16
2022-09-01T02:10:47.415Z,100425.66
2022-09-01T02:13:18.271Z,100427.78
2022-09-01T02:15:48.669Z,100425.34
2022-09-01T02:18:21.681Z,100428.63
2022-09-01T02:20:51.539Z,100427.81
2022-09-01T02:23:23.434Z,100428.31
2022-09-01T02:26:15.478Z,100421.50
2022-09-01T02:28:46.879Z,100414.25
2022-09-01T02:31:21.205Z,100422.69
2022-09-01T02:33:49.214Z,100423.31
2022-09-01T02:36:19.757Z,100433.75
2022-09-01T02:38:53.565Z,100429.63
2022-09-01T02:41:29.405Z,100429.28
2022-09-01T02:43:57.787Z,100429.13
2022-09-01T02:46:26.285Z,100437.91
2022-09-01T02:48:54.726Z,100431.31
2022-09-01T02:51:25.812Z,100434.75
2022-09-01T02:53:55.181Z,100438.88
2022-09-01T02:56:27.665Z,100434.59
2022-09-01T02:58:56.690Z,100433.91
2022-09-01T03:01:27.427Z,100427.47
2022-09-01T03:03:57.303Z,100431.97
2022-09-01T03:06:26.849Z,100432.78
2022-09-01T03:08:57.050Z,100438.25
2022-09-01T03:11:26.668Z,100439.56
2022-09-01T03:13:54.850Z,100441.91
2022-09-01T03:16:23.669Z,100444.22
2022-09-01T03:18:52.051Z,100437.06
2022-09-01T03:21:20.455Z,100429.66
2022-09-01T03:23:49.661Z,100432.28
2022-09-01T03:26:21.150Z,100423.38
2022-09-01T03:28:52.182Z,100429.63
2022-09-01T03:31:21.112Z,100437.19
2022-09-01T03:33:51.178Z,100446.41
2022-09-01T03:36:20.332Z,100446.75
2022-09-01T03:38:49.829Z,100455.34
2022-09-01T03:41:21.675Z,100447.28
2022-09-01T03:43:51.372Z,100451.06
2022-09-01T03:46:22.525Z,100450.09
2022-09-01T03:48:52.331Z,100456.03
2022-09-01T03:51:22.921Z,100451.91
2022-09-01T03:53:54.587Z,100449.09
2022-09-01T03:56:24.775Z,100450.84
2022-09-01T03:58:54.812Z,100452.81
2022-09-01T04:01:23.086Z,100442.75
2022-09-01T04:03:52.324Z,100448.03
2022-09-01T04:06:24.369Z,100444.41
2022-09-01T04:08:56.953Z,100450.00
2022-09-01T04:11:25.438Z,100451.69
2022-09-01T04:13:54.935Z,100441.94
2022-09-01T04:16:42.674Z,100450.38
2022-09-01T04:19:20.453Z,100448.56
2022-09-01T04:21:51.806Z,100448.06
2022-09-01T04:24:20.434Z,100446.91
2022-09-01T04:26:49.851Z,100440.13
2022-09-01T04:29:27.773Z,100464.03
2022-09-01T04:31:56.777Z,100450.00
2022-09-01T04:34:26.394Z,100453.00
2022-09-01T04:36:55.501Z,100454.00
2022-09-01T04:39:24.252Z,100449.91
2022-09-01T04:41:52.750Z,100454.84
2022-09-01T04:44:23.477Z,100457.50
2022-09-01T04:46:51.714Z,100461.84
2022-09-01T04:49:22.689Z,100464.66
2022-09-01T04:51:54.139Z,100461.00
2022-09-01T04:54:23.986Z,100463.66
2022-09-01T04:56:54.116Z,100454.44
2022-09-01T04:59:27.356Z,100447.34
2022-09-01T05:01:57.755Z,100449.97
2022-09-01T05:04:28.557Z,100453.78
2022-09-01T05:06:59.902Z,100453.28
2022-09-01T05:09:29.753Z,100454.56
2022-09-01T05:12:01.770Z,100442.53
2022-09-01T05:14:31.191Z,100451.97
2022-09-01T05:17:00.360Z,100447.84
2022-09-01T05:19:30.949Z,100447.47
2022-09-01T05:22:00.124Z,100449.47
2022-09-01T05:24:30.535Z,100449.47
2022-09-01T05:26:59.077Z,100449.50
2022-09-01T05:29:27.860Z,100446.16
2022-09-01T05:31:58.828Z,100441.22
2022-09-01T05:34:28.095Z,100442.72
2022-09-01T05:36:59.351Z,100446.03
2022-09-01T05:39:28.134Z,100444.53
2022-09-01T05:41:57.340Z,100436.59
2022-09-01T05:44:25.752Z,100438.75
2022-09-01T05:46:55.960Z,100436.47
2022-09-01T05:49:27.011Z,100437.28
2022-09-01T05:51:59.104Z,100432.28
2022-09-01T05:54:29.270Z,100431.81
2022-09-01T05:57:23.768Z,100437.59
2022-09-01T05:59:53.929Z,100435.28
2022-09-01T06:02:22.998Z,100438.19
2022-09-01T06:04:55.019Z,100436.34
2022-09-01T06:07:25.292Z,100436.47
2022-09-01T06:09:53.907Z,100441.78
2022-09-01T06:12:23.418Z,100436.97
2022-09-01T06:14:54.524Z,100445.25
2022-09-01T06:17:25.293Z,100449.00
2022-09-01T06:19:56.917Z,100435.72
2022-09-01T06:22:26.851Z,100442.56
2022-09-01T06:25:01.078Z,100453.00
2022-09-01T06:27:30.721Z,100450.81
2022-09-01T06:29:58.917Z,100468.00
2022-09-01T06:32:27.209Z,100452.34
2022-09-01T06:34:59.185Z,100456.81
2022-09-01T06:37:29.041Z,100455.59
2022-09-01T06:39:57.690Z,100462.38
2022-09-01T06:42:26.246Z,100463.94
2022-09-01T06:44:54.628Z,100468.91
2022-09-01T06:47:22.734Z,100465.59
2022-09-01T06:49:53.632Z,100473.28
2022-09-01T06:52:27.319Z,100473.16
2022-09-01T06:54:56.047Z,100469.03
2022-09-01T07:00:19.191Z,100476.97
2022-09-01T07:02:48.293Z,100479.53
2022-09-01T07:08:17.953Z,100488.44
2022-09-01T07:13:38.803Z,100479.88
2022-09-01T07:18:59.010Z,100479.47
2022-09-01T07:21:39.479Z,100480.59
2022-09-01T07:24:12.312Z,100482.75
2022-09-01T07:26:47.172Z,100483.19
2022-09-01T07:29:15.566Z,100485.03
2022-09-01T07:32:43.449Z,100473.44
2022-09-01T07:34:40.242Z,100477.63
2022-09-01T07:38:47.041Z,100473.25
2022-09-01T07:45:31.368Z,100476.97
2022-09-01T07:48:03.691Z,100463.84
2022-09-01T07:53:22.763Z,100460.66
2022-09-01T07:55:53.982Z,100455.06
2022-09-01T07:58:24.932Z,100460.53
2022-09-01T08:00:54.571Z,100453.72
2022-09-01T08:03:25.253Z,100456.97
2022-09-01T08:05:57.922Z,100457.00
2022-09-01T08:08:29.220Z,100448.72
2022-09-01T09:32:06.979Z,100371.09
2022-09-01T09:34:51.280Z,100381.59
2022-09-01T09:37:24.198Z,100378.94
2022-09-01T09:40:12.623Z,100369.94
2022-09-01T09:42:42.459Z,100371.84
2022-09-01T09:45:24.820Z,100359.63
2022-09-01T09:47:56.138Z,100371.34
2022-09-01T09:50:29.588Z,100370.03
2022-09-01T09:53:15.470Z,100363.00
2022-09-01T09:55:59.758Z,100366.72
2022-09-01T09:58:36.558Z,100356.38
2022-09-01T10:01:08.834Z,100366.50
2022-09-01T10:03:42.458Z,100359.19
2022-09-01T10:06:17.567Z,100344.13
2022-09-01T10:08:48.120Z,100347.34
2022-09-01T10:11:35.869Z,100341.09
2022-09-01T10:14:07.933Z,100341.47
2022-09-01T10:16:40.056Z,100342.09
2022-09-01T10:19:13.997Z,100339.56
2022-09-01T10:21:46.341Z,100340.13
2022-09-01T10:24:22.500Z,100335.03
2022-09-01T10:26:58.142Z,100342.94
2022-09-01T10:29:34.760Z,100347.03
2022-09-01T10:32:28.419Z,100342.66
2022-09-01T10:34:59.692Z,100343.06
2022-09-01T10:37:28.833Z,100332.31
2022-09-01T10:40:44.075Z,100320.28
2022-09-01T10:43:43.884Z,100331.53
2022-09-01T10:46:42.348Z,100323.16
2022-09-01T10:49:36.673Z,100323.03
2022-09-01T10:52:13.050Z,100310.72
2022-09-01T10:54:57.458Z,100316.53
2022-09-01T10:57:43.697Z,100302.97
2022-09-01T11:04:02.801Z,100309.09
2022-09-01T11:07:12.264Z,100312.59
2022-09-01T11:09:44.008Z,100294.97
2022-09-01T11:12:43.134Z,100279.50
2022-09-01T11:15:40.170Z,100294.88
2022-09-01T11:18:19.446Z,100296.13
2022-09-01T11:20:48.762Z,100281.84
2022-09-01T11:23:25.306Z,100284.03
2022-09-01T11:28:48.114Z,100279.72
2022-09-01T11:31:22.823Z,100272.16
2022-09-01T11:34:01.073Z,100277.78
2022-09-01T11:36:32.451Z,100273.06
2022-09-01T11:39:09.007Z,100266.50
2022-09-01T11:41:57.605Z,100275.91
2022-09-01T11:44:33.950Z,100268.75
2022-09-01T11:47:10.736Z,100261.00
2022-09-01T11:49:50.278Z,100261.25
2022-09-01T11:52:20.433Z,100260.19
2022-09-01T11:54:49.701Z,100258.94
2022-09-01T11:57:29.186Z,100255.56
2022-09-01T11:59:59.151Z,100243.66
2022-09-01T12:02:36.501Z,100247.47
2022-09-01T12:05:26.060Z,100246.66
2022-09-01T12:07:54.980Z,100212.03
2022-09-01T12:10:30.926Z,100238.91
2022-09-01T12:13:06.510Z,100231.53
2022-09-01T12:15:43.439Z,100241.41
2022-09-01T12:18:27.165Z,100240.28
2022-09-01T12:20:57.962Z,100240.00
2022-09-01T12:23:29.415Z,100231.69
2022-09-01T12:26:00.275Z,100236.13
2022-09-01T12:28:32.342Z,100222.78
2022-09-01T12:31:07.551Z,100226.97
2022-09-01T12:33:36.922Z,100222.13
2022-09-01T12:36:16.843Z,100228.81
2022-09-01T12:38:45.330Z,100220.13
2022-09-01T12:41:36.066Z,100218.63
2022-09-01T12:44:31.242Z,100216.63
2022-09-01T12:47:02.315Z,100214.19
2022-09-01T12:49:45.253Z,100206.81
2022-09-01T12:52:29.771Z,100206.97
2022-09-01T12:55:47.493Z,100201.34
2022-09-01T12:58:06.705Z,100203.88
2022-09-01T13:00:39.733Z,100211.97
2022-09-01T13:03:09.685Z,100207.97
2022-09-01T13:05:42.400Z,100200.31
2022-09-01T13:08:11.857Z,100205.47
2022-09-01T13:10:43.250Z,100199.72
2022-09-01T13:13:12.773Z,100202.25
2022-09-01T13:15:45.469Z,100192.59
2022-09-01T13:18:13.727Z,100192.03
2022-09-01T13:20:42.158Z,100190.09
2022-09-01T13:23:12.875Z,100168.97
2022-09-01T13:25:44.804Z,100158.88
2022-09-01T13:28:13.300Z,100166.53
2022-09-01T13:30:44.778Z,100175.88
2022-09-01T13:33:21.717Z,100178.75
2022-09-01T13:35:52.650Z,100181.03
2022-09-01T13:38:21.271Z,100181.66
2022-09-01T13:40:51.558Z,100172.38
2022-09-01T13:43:22.277Z,100174.97
2022-09-01T13:45:52.499Z,100187.72
2022-09-01T13:48:23.030Z,100183.56
2022-09-01T13:53:42.309Z,100185.03
2022-09-01T13:56:10.611Z,100181.66
2022-09-01T13:58:38.787Z,100178.94
2022-09-01T14:01:08.729Z,100169.69
2022-09-01T14:03:37.110Z,100178.31
2022-09-01T14:06:07.215Z,100177.28
2022-09-01T14:08:35.377Z,100185.31
2022-09-01T14:11:04.345Z,100185.38
2022-09-01T14:13:33.093Z,100186.78
2022-09-01T14:16:01.815Z,100180.91
2022-09-01T14:18:36.846Z,100185.38
2022-09-01T14:21:05.772Z,100183.31
2022-09-01T14:23:33.986Z,100188.72
2022-09-01T14:26:02.167Z,100195.47
2022-09-01T14:28:30.493Z,100189.81
2022-09-01T14:33:27.597Z,100179.28
2022-09-01T14:35:59.263Z,100182.25
2022-09-01T14:38:27.386Z,100185.28
2022-09-01T14:40:55.636Z,100180.16
2022-09-01T14:43:25.595Z,100177.50
2022-09-01T14:46:06.685Z,100132.13
2022-09-01T14:48:35.662Z,100173.56
2022-09-01T14:51:06.050Z,100173.69
2022-09-01T14:53:34.939Z,100166.34
2022-09-01T14:56:04.452Z,100170.38
2022-09-01T14:58:33.583Z,100169.47
2022-09-01T15:01:17.305Z,100176.31
2022-09-01T15:03:49.865Z,100168.34
2022-09-01T15:06:22.126Z,100171.97
2022-09-01T15:08:51.218Z,100171.00
2022-09-01T15:11:21.964Z,100167.22
2022-09-01T15:13:52.674Z,100161.56
2022-09-01T15:16:24.357Z,100167.84
2022-09-01T15:18:55.440Z,100176.78
2022-09-01T15:21:26.971Z,100173.97
2022-09-01T15:23:55.574Z,100168.09
2022-09-01T15:26:23.883Z,100174.44
2022-09-01T15:28:52.518Z,100165.38
2022-09-01T15:31:32.943Z,100174.88
2022-09-01T15:34:03.427Z,100176.34
2022-09-01T15:36:35.920Z,100163.81
2022-09-01T15:39:05.398Z,100180.22
2022-09-01T15:41:34.729Z,100182.22
2022-09-01T15:44:05.529Z,100167.59
2022-09-01T15:46:34.239Z,100169.66
2022-09-01T15:49:02.934Z,100172.59
2022-09-01T15:51:36.153Z,100175.66
2022-09-01T15:54:08.632Z,100184.50
2022-09-01T15:56:36.958Z,100180.81
2022-09-01T15:59:06.714Z,100177.25
2022-09-01T16:01:37.575Z,100183.69
2022-09-01T16:04:07.140Z,100170.75
2022-09-01T16:06:37.225Z,100176.75
2022-09-01T16:09:06.061Z,100166.97
2022-09-01T16:11:36.792Z,100171.09
2022-09-01T16:14:05.598Z,100179.13
2022-09-01T16:16:42.322Z,100179.44
2022-09-01T16:19:24.587Z,100179.19
2022-09-01T16:22:03.537Z,100184.13
2022-09-01T16:24:31.624Z,100178.84
2022-09-01T16:26:59.835Z,100175.81
2022-09-01T16:29:33.959Z,100186.56
2022-09-01T16:32:02.102Z,100184.06
2022-09-01T16:34:32.178Z,100177.53
2022-09-01T16:37:07.000Z,100183.91
2022-09-01T16:39:47.056Z,100192.72
2022-09-01T16:42:26.247Z,100202.00
2022-09-01T16:45:04.996Z,100205.31
2022-09-01T16:47:44.678Z,100211.50
2022-09-01T16:50:20.239Z,100203.91
2022-09-01T16:53:05.749Z,100210.28
2022-09-01T16:55:41.542Z,100216.25
2022-09-01T16:58:21.582Z,100242.53
2022-09-01T17:01:03.402Z,100258.09
2022-09-01T17:03:42.791Z,100276.13
2022-09-01T17:06:16.870Z,100301.16
2022-09-01T17:08:55.009Z,100305.88
2022-09-01T17:11:28.191Z,100317.97
2022-09-01T17:13:58.267Z,100312.63
2022-09-01T17:16:31.084Z,100307.28
2022-09-01T17:19:01.150Z,100318.03
2022-09-01T17:21:34.508Z,100339.22
2022-09-01T17:24:12.546Z,100347.13
2022-09-01T17:26:41.908Z,100368.63
2022-09-01T17:29:16.088Z,100342.44
2022-09-01T17:31:56.020Z,100395.13
2022-09-01T17:34:38.848Z,100396.16
2022-09-01T17:37:20.696Z,100405.59
2022-09-01T17:40:01.049Z,100397.50
2022-09-01T17:42:34.648Z,100410.50
2022-09-01T17:45:13.146Z,100405.59
2022-09-01T17:47:53.083Z,100408.06
2022-09-01T17:50:26.440Z,100404.56
2022-09-01T17:53:10.046Z,100418.47
2022-09-01T17:55:50.434Z,100418.22
2022-09-01T17:58:38.358Z,100427.28
2022-09-01T18:01:11.414Z,100423.44
2022-09-01T18:03:51.478Z,100429.84
2022-09-01T18:06:29.504Z,100420.78
2022-09-01T18:08:59.454Z,100425.72
2022-09-01T18:11:40.513Z,100427.06
2022-09-01T18:14:13.520Z,100433.84
2022-09-01T18:16:49.479Z,100427.44
2022-09-01T18:19:20.706Z,100417.06
2022-09-01T18:21:54.165Z,100434.25
2022-09-01T18:24:27.835Z,100430.97
2022-09-01T18:26:57.296Z,100432.97
2022-09-01T18:29:29.736Z,100430.13
2022-09-01T18:32:19.369Z,100437.41
2022-09-01T18:34:58.031Z,100430.50
2022-09-01T18:37:33.570Z,100426.38
2022-09-01T18:40:09.485Z,100418.59
2022-09-01T18:42:46.190Z,100409.75
2022-09-01T18:45:24.634Z,100418.88
2022-09-01T18:48:01.389Z,100407.63
2022-09-01T18:50:35.873Z,100394.72
2022-09-01T18:53:21.313Z,100393.13
2022-09-01T18:55:56.305Z,100383.56
2022-09-01T18:58:42.258Z,100379.53
2022-09-01T19:01:25.786Z,100370.59
2022-09-01T19:03:58.555Z,100357.06
2022-09-01T19:06:33.663Z,100356.69
2022-09-01T19:09:11.826Z,100353.94
2022-09-01T19:11:49.434Z,100358.97
2022-09-01T19:14:30.137Z,100361.75
2022-09-01T19:17:16.490Z,100375.28
2022-09-01T19:19:51.090Z,100395.84
2022-09-01T19:22:24.598Z,100392.59
2022-09-01T19:25:22.718Z,100389.13
2022-09-01T19:27:58.316Z,100395.63
2022-09-01T19:30:28.064Z,100394.97
2022-09-01T19:32:59.500Z,100388.72
2022-09-01T19:35:29.469Z,100393.03
2022-09-01T19:37:57.617Z,100387.38
2022-09-01T19:40:31.843Z,100399.09
2022-09-01T19:43:06.531Z,100401.59
2022-09-01T19:45:46.172Z,100401.25
2022-09-01T19:48:19.344Z,100401.22
2022-09-01T19:50:51.641Z,100406.69
2022-09-01T19:53:38.056Z,100402.38
2022-09-01T19:56:10.686Z,100401.91
2022-09-01T19:58:55.770Z,100418.06
2022-09-01T20:01:43.254Z,100412.13
2022-09-01T20:04:21.744Z,100415.59
2022-09-01T20:06:53.748Z,100430.47
2022-09-01T20:09:27.174Z,100424.84
2022-09-01T20:12:00.111Z,100427.31
2022-09-01T20:14:44.395Z,100426.00
2022-09-01T20:17:21.505Z,100419.41
2022-09-01T20:19:56.767Z,100432.28
2022-09-01T20:22:33.751Z,100427.34
2022-09-01T20:25:09.866Z,100429.00
2022-09-01T20:27:49.228Z,100429.47
2022-09-01T20:30:20.077Z,100434.59
2022-09-01T20:32:56.758Z,100427.34
2022-09-01T20:35:30.023Z,100429.31
2022-09-01T20:38:02.266Z,100409.16
2022-09-01T20:40:34.891Z,100429.50
2022-09-01T20:43:10.122Z,100428.03
2022-09-01T20:45:39.810Z,100416.59
2022-09-01T20:48:18.245Z,100420.41
2022-09-01T20:50:52.753Z,100429.16
2022-09-01T20:53:44.739Z,100431.63
2022-09-01T20:56:20.322Z,100425.03
2022-09-01T20:58:55.097Z,100427.97
2022-09-01T21:01:34.507Z,100424.34
2022-09-01T21:04:11.150Z,100425.69
2022-09-01T21:06:49.710Z,100417.75
2022-09-01T21:09:28.808Z,100419.56
2022-09-01T21:12:05.292Z,100413.28
2022-09-01T21:14:43.574Z,100416.28
2022-09-01T21:17:21.649Z,100418.75
2022-09-01T21:20:00.041Z,100405.88
2022-09-01T21:22:28.722Z,100419.72
2022-09-01T21:24:57.596Z,100418.09
2022-09-01T21:27:29.590Z,100424.00
2022-09-01T21:30:03.126Z,100419.22
2022-09-01T21:32:34.762Z,100428.28
2022-09-01T21:35:05.578Z,100419.38
2022-09-01T21:37:33.649Z,100425.28
2022-09-01T21:40:01.866Z,100433.25
2022-09-01T21:42:33.372Z,100425.63
2022-09-01T21:45:03.218Z,100434.22
2022-09-01T21:47:33.999Z,100430.63
2022-09-01T21:50:03.793Z,100432.59
2022-09-01T21:52:31.795Z,100431.59
2022-09-01T21:54:59.830Z,100425.31
2022-09-01T21:57:28.005Z,100426.63
2022-09-01T21:59:56.106Z,100428.13
2022-09-01T22:02:24.209Z,100426.84
2022-09-01T22:04:56.763Z,100429.31
2022-09-01T22:07:26.157Z,100431.97
2022-09-01T22:09:54.202Z,100424.19
2022-09-01T22:12:22.213Z,100431.28
2022-09-01T22:14:50.250Z,100428.34
2022-09-01T22:17:18.260Z,100425.03
2022-09-01T22:19:46.480Z,100432.63
2022-09-01T22:22:15.001Z,100429.47
2022-09-01T22:24:44.369Z,100425.34
2022-09-01T22:27:12.373Z,100429.31
2022-09-01T22:29:40.412Z,100427.88
2022-09-01T22:32:09.382Z,100423.75
2022-09-01T22:34:37.392Z,100421.06
2022-09-01T22:37:06.229Z,100426.34
2022-09-01T22:39:34.218Z,100426.81
2022-09-01T22:42:03.933Z,100429.31
2022-09-01T22:44:31.971Z,100426.03
2022-09-01T22:47:00.077Z,100427.34
2022-09-01T22:49:28.375Z,100420.75
2022-09-01T22:51:56.632Z,100427.81
2022-09-01T22:54:24.710Z,100426.69
2022-09-01T22:56:53.076Z,100424.53
2022-09-01T22:59:25.766Z,100415.28
2022-09-01T23:01:54.915Z,100426.22
2022-09-01T23:04:23.522Z,100412.16
2022-09-01T23:06:54.541Z,100409.69
2022-09-01T23:09:22.815Z,100417.75
2022-09-01T23:11:51.314Z,100414.97
2022-09-01T23:14:19.653Z,100418.75
2022-09-01T23:16:51.326Z,100407.72
2022-09-01T23:19:19.873Z,100409.03
2022-09-01T23:21:48.375Z,100407.06
2022-09-01T23:24:16.518Z,100411.53
2022-09-01T23:26:48.604Z,100401.56
2022-09-01T23:29:17.165Z,100411.63
2022-09-01T23:31:45.282Z,100410.19
2022-09-01T23:34:14.743Z,100408.84
2022-09-01T23:36:43.727Z,100409.03
2022-09-01T23:39:11.778Z,100412.34
2022-09-01T23:41:40.368Z,100421.44
2022-09-01T23:44:10.647Z,100416.97
2022-09-01T23:46:43.656Z,100428.34
2022-09-01T23:49:13.596Z,100418.47
2022-09-01T23:51:43.929Z,100418.59
2022-09-01T23:54:13.486Z,100416.78
2022-09-01T23:56:41.698Z,100423.06
2022-09-01T23:59:10.104Z,100417.78
